sensor_id;sensor_type;location;lat;lon;timestamp;pressure;altitude;pressure_sealevel;temperature;humidity
19783;BME280;10051;40.294;-3.754;2022-12-07T00:01:09;94148.31;;;10.46;100.00
19783;BME280;10051;40.294;-3.754;2022-12-07T00:03:36;94080.88;;;10.01;100.00
19783;BME280;10051;40.294;-3.754;2022-12-07T00:06:04;94110.16;;;10.19;100.00
19783;BME280;10051;40.294;-3.754;2022-12-07T00:08:31;94142.06;;;10.36;100.00
19783;BME280;10051;40.294;-3.754;2022-12-07T00:11:08;94134.28;;;10.26;100.00
19783;BME280;10051;40.294;-3.754;2022-12-07T00:13:35;94136.31;;;10.34;100.00
19783;BME280;10051;40.294;-3.754;2022-12-07T00:16:10;94130.06;;;10.25;100.00
19783;BME280;10051;40.294;-3.754;2022-12-07T00:18:37;94088.47;;;9.73;100.00
19783;BME280;10051;40.294;-3.754;2022-12-07T00:21:18;94133.91;;;10.03;100.00
19783;BME280;10051;40.294;-3.754;2022-12-07T00:23:46;94134.03;;;9.93;100.00
19783;BME280;10051;40.294;-3.754;2022-12-07T00:26:17;94011.47;;;9.14;100.00
19783;BME280;10051;40.294;-3.754;2022-12-07T00:29:36;94061.97;;;9.35;100.00
19783;BME280;10051;40.294;-3.754;2022-12-07T00:31:55;94081.88;;;9.76;100.00
19783;BME280;10051;40.294;-3.754;2022-12-07T00:34:21;94091.06;;;9.78;100.00
19783;BME280;10051;40.294;-3.754;2022-12-07T00:36:47;94087.13;;;9.76;100.00
19783;BME280;10051;40.294;-3.754;2022-12-07T00:39:14;94119.59;;;10.20;100.00
19783;BME280;10051;40.294;-3.754;2022-12-07T00:41:39;94073.34;;;9.89;100.00
19783;BME280;10051;40.294;-3.754;2022-12-07T00:44:05;94045.34;;;9.79;100.00
19783;BME280;10051;40.294;-3.754;2022-12-07T00:46:30;94125.03;;;10.29;100.00
19783;BME280;10051;40.294;-3.754;2022-12-07T00:48:56;94107.59;;;10.38;100.00
19783;BME280;10051;40.294;-3.754;2022-12-07T00:51:23;94116.75;;;10.46;100.00
19783;BME280;10051;40.294;-3.754;2022-12-07T00:53:49;94111.00;;;10.44;100.00
19783;BME280;10051;40.294;-3.754;2022-12-07T00:56:24;94010.16;;;9.80;100.00
19783;BME280;10051;40.294;-3.754;2022-12-07T00:58:52;94107.84;;;10.41;100.00
19783;BME280;10051;40.294;-3.754;2022-12-07T01:01:18;94080.09;;;10.30;100.00
19783;BME280;10051;40.294;-3.754;2022-12-07T01:03:44;94013.84;;;9.79;100.00
19783;BME280;10051;40.294;-3.754;2022-12-07T01:06:14;94070.88;;;10.03;100.00
19783;BME280;10051;40.294;-3.754;2022-12-07T01:08:40;94110.28;;;10.03;100.00
19783;BME280;10051;40.294;-3.754;2022-12-07T01:11:09;94096.03;;;10.09;100.00
19783;BME280;10051;40.294;-3.754;2022-12-07T01:13:35;94003.78;;;9.57;100.00
19783;BME280;10051;40.294;-3.754;2022-12-07T01:16:04;94092.53;;;10.19;100.00
19783;BME280;10051;40.294;-3.754;2022-12-07T01:18:31;94094.28;;;10.29;100.00
19783;BME280;10051;40.294;-3.754;2022-12-07T01:21:03;93993.66;;;9.75;100.00
19783;BME280;10051;40.294;-3.754;2022-12-07T01:23:30;94071.75;;;10.23;100.00
19783;BME280;10051;40.294;-3.754;2022-12-07T01:26:01;94075.63;;;10.01;100.00
19783;BME280;10051;40.294;-3.754;2022-12-07T01:28:26;94050.69;;;9.69;100.00
19783;BME280;10051;40.294;-3.754;2022-12-07T01:31:13;94063.81;;;9.69;100.00
19783;BME280;10051;40.294;-3.754;2022-12-07T01:33:40;94056.16;;;9.73;100.00
19783;BME280;10051;40.294;-3.754;2022-12-07T01:36:19;94062.59;;;9.91;100.00
19783;BME280;10051;40.294;-3.754;2022-12-07T01:38:46;94069.00;;;10.09;100.00
19783;BME280;10051;40.294;-3.754;2022-12-07T01:41:13;94060.28;;;10.14;100.00
19783;BME280;10051;40.294;-3.754;2022-12-07T01:44:09;94057.56;;;10.24;100.00
19783;BME280;10051;40.294;-3.754;2022-12-07T01:46:35;93994.91;;;9.82;100.00
19783;BME280;10051;40.294;-3.754;2022-12-07T01:49:01;94029.31;;;10.10;100.00
19783;BME280;10051;40.294;-3.754;2022-12-07T01:51:28;93994.44;;;9.75;100.00
19783;BME280;10051;40.294;-3.754;2022-12-07T01:53:54;94013.63;;;10.00;100.00
19783;BME280;10051;40.294;-3.754;2022-12-07T01:56:24;94011.84;;;9.95;100.00
19783;BME280;10051;40.294;-3.754;2022-12-07T01:58:52;93957.69;;;9.46;100.00
19783;BME280;10051;40.294;-3.754;2022-12-07T02:01:20;93991.84;;;9.41;100.00
19783;BME280;10051;40.294;-3.754;2022-12-07T02:03:46;94030.34;;;9.50;100.00
19783;BME280;10051;40.294;-3.754;2022-12-07T02:06:16;94040.81;;;9.56;100.00
19783;BME280;10051;40.294;-3.754;2022-12-07T02:08:45;94001.09;;;9.33;100.00
19783;BME280;10051;40.294;-3.754;2022-12-07T02:11:11;94033.66;;;9.66;100.00
19783;BME280;10051;40.294;-3.754;2022-12-07T02:13:40;94031.97;;;9.76;100.00
19783;BME280;10051;40.294;-3.754;2022-12-07T02:16:26;94052.31;;;9.94;100.00
19783;BME280;10051;40.294;-3.754;2022-12-07T02:19:24;94051.72;;;10.03;100.00
19783;BME280;10051;40.294;-3.754;2022-12-07T02:27:39;94052.84;;;9.62;100.00
19783;BME280;10051;40.294;-3.754;2022-12-07T02:32:46;94043.91;;;9.63;100.00
19783;BME280;10051;40.294;-3.754;2022-12-07T02:38:18;94046.97;;;9.35;100.00
19783;BME280;10051;40.294;-3.754;2022-12-07T02:41:02;94050.94;;;9.33;100.00
19783;BME280;10051;40.294;-3.754;2022-12-07T02:43:43;94037.34;;;9.26;100.00
19783;BME280;10051;40.294;-3.754;2022-12-07T02:46:14;94028.69;;;9.25;100.00
19783;BME280;10051;40.294;-3.754;2022-12-07T02:48:43;94008.00;;;9.18;100.00
19783;BME280;10051;40.294;-3.754;2022-12-07T02:51:08;93985.09;;;8.95;100.00
19783;BME280;10051;40.294;-3.754;2022-12-07T02:53:35;94047.19;;;9.44;100.00
19783;BME280;10051;40.294;-3.754;2022-12-07T02:58:44;94064.88;;;9.68;100.00
19783;BME280;10051;40.294;-3.754;2022-12-07T03:03:47;93962.56;;;8.88;100.00
19783;BME280;10051;40.294;-3.754;2022-12-07T03:06:24;94045.28;;;9.55;100.00
19783;BME280;10051;40.294;-3.754;2022-12-07T03:09:10;93959.22;;;9.17;100.00
19783;BME280;10051;40.294;-3.754;2022-12-07T03:11:51;93950.03;;;9.20;100.00
19783;BME280;10051;40.294;-3.754;2022-12-07T03:14:26;93987.59;;;9.45;100.00
19783;BME280;10051;40.294;-3.754;2022-12-07T03:17:12;93987.94;;;9.38;100.00
19783;BME280;10051;40.294;-3.754;2022-12-07T03:19:40;94045.91;;;9.76;100.00
19783;BME280;10051;40.294;-3.754;2022-12-07T03:22:11;93960.38;;;9.35;100.00
19783;BME280;10051;40.294;-3.754;2022-12-07T03:24:42;94040.75;;;9.95;100.00
19783;BME280;10051;40.294;-3.754;2022-12-07T03:27:14;94045.16;;;10.00;100.00
19783;BME280;10051;40.294;-3.754;2022-12-07T03:29:49;94038.78;;;10.06;100.00
19783;BME280;10051;40.294;-3.754;2022-12-07T03:35:04;94036.06;;;9.58;100.00
19783;BME280;10051;40.294;-3.754;2022-12-07T03:40:44;94034.09;;;9.44;100.00
19783;BME280;10051;40.294;-3.754;2022-12-07T03:43:10;94035.94;;;9.73;100.00
19783;BME280;10051;40.294;-3.754;2022-12-07T03:45:43;94039.00;;;9.86;100.00
19783;BME280;10051;40.294;-3.754;2022-12-07T03:50:55;94032.88;;;9.95;100.00
19783;BME280;10051;40.294;-3.754;2022-12-07T03:53:31;94036.56;;;9.94;100.00
19783;BME280;10051;40.294;-3.754;2022-12-07T03:56:00;93989.78;;;9.67;100.00
19783;BME280;10051;40.294;-3.754;2022-12-07T03:58:27;94026.50;;;10.02;100.00
19783;BME280;10051;40.294;-3.754;2022-12-07T04:00:57;93992.03;;;9.79;100.00
19783;BME280;10051;40.294;-3.754;2022-12-07T04:03:23;93995.72;;;9.78;100.00
19783;BME280;10051;40.294;-3.754;2022-12-07T04:05:49;93988.34;;;9.80;100.00
19783;BME280;10051;40.294;-3.754;2022-12-07T04:08:14;93986.00;;;9.78;100.00
19783;BME280;10051;40.294;-3.754;2022-12-07T04:10:40;94003.75;;;9.62;100.00
19783;BME280;10051;40.294;-3.754;2022-12-07T04:13:05;94019.34;;;9.48;100.00
19783;BME280;10051;40.294;-3.754;2022-12-07T04:15:31;93977.03;;;9.20;100.00
19783;BME280;10051;40.294;-3.754;2022-12-07T04:17:57;93987.34;;;9.46;100.00
19783;BME280;10051;40.294;-3.754;2022-12-07T04:20:22;94020.97;;;9.74;100.00
19783;BME280;10051;40.294;-3.754;2022-12-07T04:22:48;94010.72;;;9.77;100.00
19783;BME280;10051;40.294;-3.754;2022-12-07T04:25:14;93960.50;;;9.25;100.00
19783;BME280;10051;40.294;-3.754;2022-12-07T04:27:40;93991.69;;;9.27;100.00
19783;BME280;10051;40.294;-3.754;2022-12-07T04:30:06;94002.25;;;9.16;100.00
19783;BME280;10051;40.294;-3.754;2022-12-07T04:32:32;94008.78;;;9.24;100.00
19783;BME280;10051;40.294;-3.754;2022-12-07T04:34:57;94003.78;;;9.22;100.00
19783;BME280;10051;40.294;-3.754;2022-12-07T04:37:24;93995.41;;;9.20;100.00
19783;BME280;10051;40.294;-3.754;2022-12-07T04:39:49;93948.56;;;9.03;100.00
19783;BME280;10051;40.294;-3.754;2022-12-07T04:42:15;93887.34;;;8.84;100.00
19783;BME280;10051;40.294;-3.754;2022-12-07T04:44:41;93791.75;;;8.36;100.00
19783;BME280;10051;40.294;-3.754;2022-12-07T04:47:06;94001.00;;;9.73;100.00
19783;BME280;10051;40.294;-3.754;2022-12-07T04:49:32;93973.78;;;9.34;100.00
19783;BME280;10051;40.294;-3.754;2022-12-07T04:51:58;93870.53;;;8.50;100.00
19783;BME280;10051;40.294;-3.754;2022-12-07T04:54:24;93890.38;;;8.61;100.00
19783;BME280;10051;40.294;-3.754;2022-12-07T04:56:49;93894.03;;;8.66;100.00
19783;BME280;10051;40.294;-3.754;2022-12-07T04:59:16;93865.50;;;8.59;100.00
19783;BME280;10051;40.294;-3.754;2022-12-07T05:01:41;93990.28;;;9.40;100.00
19783;BME280;10051;40.294;-3.754;2022-12-07T05:04:08;93925.34;;;8.86;100.00
19783;BME280;10051;40.294;-3.754;2022-12-07T05:06:34;93930.09;;;8.84;100.00
19783;BME280;10051;40.294;-3.754;2022-12-07T05:09:00;93983.59;;;9.23;100.00
19783;BME280;10051;40.294;-3.754;2022-12-07T05:11:25;93869.00;;;8.39;100.00
19783;BME280;10051;40.294;-3.754;2022-12-07T05:16:34;93992.47;;;9.27;100.00
19783;BME280;10051;40.294;-3.754;2022-12-07T05:19:00;93938.91;;;8.99;100.00
19783;BME280;10051;40.294;-3.754;2022-12-07T05:21:26;93984.84;;;9.31;100.00
19783;BME280;10051;40.294;-3.754;2022-12-07T05:23:51;93962.38;;;9.14;100.00
19783;BME280;10051;40.294;-3.754;2022-12-07T05:26:17;93990.13;;;9.26;100.00
19783;BME280;10051;40.294;-3.754;2022-12-07T05:28:43;93971.31;;;9.13;100.00
19783;BME280;10051;40.294;-3.754;2022-12-07T05:31:09;93938.16;;;8.93;100.00
19783;BME280;10051;40.294;-3.754;2022-12-07T05:33:34;93948.34;;;9.00;100.00
19783;BME280;10051;40.294;-3.754;2022-12-07T05:36:00;93955.09;;;9.06;100.00
19783;BME280;10051;40.294;-3.754;2022-12-07T05:38:31;93978.03;;;9.30;100.00
19783;BME280;10051;40.294;-3.754;2022-12-07T05:41:05;93988.72;;;9.38;100.00
19783;BME280;10051;40.294;-3.754;2022-12-07T05:43:31;93986.63;;;9.35;100.00
19783;BME280;10051;40.294;-3.754;2022-12-07T05:45:58;93981.16;;;9.32;100.00
19783;BME280;10051;40.294;-3.754;2022-12-07T05:48:24;93891.91;;;8.68;100.00
19783;BME280;10051;40.294;-3.754;2022-12-07T05:50:51;93984.34;;;9.23;100.00
19783;BME280;10051;40.294;-3.754;2022-12-07T05:53:17;93965.28;;;9.13;100.00
19783;BME280;10051;40.294;-3.754;2022-12-07T05:55:43;93973.91;;;9.18;100.00
19783;BME280;10051;40.294;-3.754;2022-12-07T05:58:09;93994.19;;;9.42;100.00
19783;BME280;10051;40.294;-3.754;2022-12-07T06:00:56;93991.97;;;9.55;100.00
19783;BME280;10051;40.294;-3.754;2022-12-07T06:03:22;93920.88;;;9.21;100.00
19783;BME280;10051;40.294;-3.754;2022-12-07T06:05:48;94001.72;;;9.84;100.00
19783;BME280;10051;40.294;-3.754;2022-12-07T06:08:13;94007.03;;;9.78;100.00
19783;BME280;10051;40.294;-3.754;2022-12-07T06:10:40;93973.56;;;9.60;100.00
19783;BME280;10051;40.294;-3.754;2022-12-07T06:13:07;93959.63;;;9.35;100.00
19783;BME280;10051;40.294;-3.754;2022-12-07T06:15:35;94004.09;;;9.50;100.00
19783;BME280;10051;40.294;-3.754;2022-12-07T06:18:01;93928.41;;;8.99;100.00
19783;BME280;10051;40.294;-3.754;2022-12-07T06:20:27;93975.25;;;9.16;100.00
19783;BME280;10051;40.294;-3.754;2022-12-07T06:22:53;94009.16;;;9.42;100.00
19783;BME280;10051;40.294;-3.754;2022-12-07T06:25:18;93907.59;;;8.73;100.00
19783;BME280;10051;40.294;-3.754;2022-12-07T06:27:44;93986.94;;;9.29;100.00
19783;BME280;10051;40.294;-3.754;2022-12-07T06:30:09;93866.34;;;8.54;100.00
19783;BME280;10051;40.294;-3.754;2022-12-07T06:32:36;93925.31;;;8.91;100.00
19783;BME280;10051;40.294;-3.754;2022-12-07T06:35:03;94001.81;;;9.38;100.00
19783;BME280;10051;40.294;-3.754;2022-12-07T06:37:29;93957.78;;;9.01;100.00
19783;BME280;10051;40.294;-3.754;2022-12-07T06:39:55;93960.81;;;9.13;100.00
19783;BME280;10051;40.294;-3.754;2022-12-07T06:42:21;94018.19;;;9.60;100.00
19783;BME280;10051;40.294;-3.754;2022-12-07T06:44:47;94002.47;;;9.55;100.00
19783;BME280;10051;40.294;-3.754;2022-12-07T06:47:12;94004.06;;;9.56;100.00
19783;BME280;10051;40.294;-3.754;2022-12-07T06:49:38;94012.34;;;9.68;100.00
19783;BME280;10051;40.294;-3.754;2022-12-07T06:52:04;93972.56;;;9.56;100.00
19783;BME280;10051;40.294;-3.754;2022-12-07T06:54:31;93918.78;;;9.23;100.00
19783;BME280;10051;40.294;-3.754;2022-12-07T06:56:56;93931.84;;;9.29;100.00
19783;BME280;10051;40.294;-3.754;2022-12-07T06:59:22;93990.34;;;9.64;100.00
19783;BME280;10051;40.294;-3.754;2022-12-07T07:01:51;93938.56;;;9.11;100.00
19783;BME280;10051;40.294;-3.754;2022-12-07T07:04:17;93918.53;;;8.85;100.00
19783;BME280;10051;40.294;-3.754;2022-12-07T07:06:42;93960.84;;;9.08;100.00
19783;BME280;10051;40.294;-3.754;2022-12-07T07:09:08;94015.25;;;9.32;100.00
19783;BME280;10051;40.294;-3.754;2022-12-07T07:11:34;93908.16;;;8.70;100.00
19783;BME280;10051;40.294;-3.754;2022-12-07T07:14:00;93992.72;;;9.31;100.00
19783;BME280;10051;40.294;-3.754;2022-12-07T07:16:29;93891.44;;;8.60;100.00
19783;BME280;10051;40.294;-3.754;2022-12-07T07:18:55;93916.50;;;8.77;100.00
19783;BME280;10051;40.294;-3.754;2022-12-07T07:21:21;93964.03;;;9.05;100.00
19783;BME280;10051;40.294;-3.754;2022-12-07T07:23:46;93965.13;;;8.99;100.00
19783;BME280;10051;40.294;-3.754;2022-12-07T07:26:12;93995.59;;;9.29;100.00
19783;BME280;10051;40.294;-3.754;2022-12-07T07:28:38;94001.63;;;9.30;100.00
19783;BME280;10051;40.294;-3.754;2022-12-07T07:31:04;93917.59;;;8.66;100.00
19783;BME280;10051;40.294;-3.754;2022-12-07T07:33:32;94005.84;;;9.26;100.00
19783;BME280;10051;40.294;-3.754;2022-12-07T07:35:58;94005.63;;;9.22;100.00
19783;BME280;10051;40.294;-3.754;2022-12-07T07:38:24;93955.72;;;8.92;100.00
19783;BME280;10051;40.294;-3.754;2022-12-07T07:40:50;93913.94;;;8.67;100.00
19783;BME280;10051;40.294;-3.754;2022-12-07T07:43:15;94012.38;;;9.28;100.00
19783;BME280;10051;40.294;-3.754;2022-12-07T07:45:41;93914.53;;;8.58;100.00
19783;BME280;10051;40.294;-3.754;2022-12-07T07:48:06;93892.03;;;8.47;100.00
19783;BME280;10051;40.294;-3.754;2022-12-07T07:50:32;93954.19;;;8.86;100.00
19783;BME280;10051;40.294;-3.754;2022-12-07T07:52:58;94002.47;;;9.25;100.00
19783;BME280;10051;40.294;-3.754;2022-12-07T07:55:24;93970.84;;;9.06;100.00
19783;BME280;10051;40.294;-3.754;2022-12-07T07:57:49;93813.13;;;8.09;100.00
19783;BME280;10051;40.294;-3.754;2022-12-07T08:00:16;93991.97;;;9.25;100.00
19783;BME280;10051;40.294;-3.754;2022-12-07T08:02:42;93963.53;;;9.03;100.00
19783;BME280;10051;40.294;-3.754;2022-12-07T08:05:08;93979.69;;;9.15;100.00
19783;BME280;10051;40.294;-3.754;2022-12-07T08:07:34;93975.03;;;9.07;100.00
19783;BME280;10051;40.294;-3.754;2022-12-07T08:10:00;93986.53;;;9.11;100.00
19783;BME280;10051;40.294;-3.754;2022-12-07T08:12:26;93939.28;;;8.82;100.00
19783;BME280;10051;40.294;-3.754;2022-12-07T08:14:51;93945.53;;;8.86;100.00
19783;BME280;10051;40.294;-3.754;2022-12-07T08:17:17;94017.03;;;9.42;100.00
19783;BME280;10051;40.294;-3.754;2022-12-07T08:19:43;94028.03;;;9.44;100.00
19783;BME280;10051;40.294;-3.754;2022-12-07T08:22:08;93933.75;;;8.83;100.00
19783;BME280;10051;40.294;-3.754;2022-12-07T08:24:35;93971.56;;;9.17;100.00
19783;BME280;10051;40.294;-3.754;2022-12-07T08:27:01;93997.38;;;9.39;100.00
19783;BME280;10051;40.294;-3.754;2022-12-07T08:29:27;93930.00;;;9.00;100.00
19783;BME280;10051;40.294;-3.754;2022-12-07T08:31:53;94005.16;;;9.49;100.00
19783;BME280;10051;40.294;-3.754;2022-12-07T08:34:18;94020.31;;;9.58;100.00
19783;BME280;10051;40.294;-3.754;2022-12-07T08:36:44;93948.75;;;9.12;100.00
19783;BME280;10051;40.294;-3.754;2022-12-07T08:39:10;94014.47;;;9.66;100.00
19783;BME280;10051;40.294;-3.754;2022-12-07T08:41:36;93935.38;;;9.14;100.00
19783;BME280;10051;40.294;-3.754;2022-12-07T08:44:02;93935.53;;;9.28;100.00
19783;BME280;10051;40.294;-3.754;2022-12-07T08:46:44;93952.97;;;9.43;100.00
19783;BME280;10051;40.294;-3.754;2022-12-07T08:51:40;94032.13;;;9.90;100.00
19783;BME280;10051;40.294;-3.754;2022-12-07T08:54:10;94021.81;;;9.99;100.00
19783;BME280;10051;40.294;-3.754;2022-12-07T08:56:36;93944.84;;;9.44;100.00
19783;BME280;10051;40.294;-3.754;2022-12-07T08:59:04;93948.72;;;9.52;100.00
19783;BME280;10051;40.294;-3.754;2022-12-07T09:01:30;94013.25;;;9.88;100.00
19783;BME280;10051;40.294;-3.754;2022-12-07T09:03:56;93976.22;;;9.55;100.00
19783;BME280;10051;40.294;-3.754;2022-12-07T09:06:22;94012.22;;;9.84;100.00
19783;BME280;10051;40.294;-3.754;2022-12-07T09:08:52;94041.25;;;9.97;100.00
19783;BME280;10051;40.294;-3.754;2022-12-07T09:11:19;94031.81;;;9.96;100.00
19783;BME280;10051;40.294;-3.754;2022-12-07T09:13:45;93936.81;;;9.30;100.00
19783;BME280;10051;40.294;-3.754;2022-12-07T09:16:11;94033.03;;;10.04;100.00
19783;BME280;10051;40.294;-3.754;2022-12-07T09:18:37;94027.97;;;10.13;100.00
19783;BME280;10051;40.294;-3.754;2022-12-07T09:21:03;94029.97;;;10.21;100.00
19783;BME280;10051;40.294;-3.754;2022-12-07T09:23:29;93981.19;;;9.91;100.00
19783;BME280;10051;40.294;-3.754;2022-12-07T09:25:59;93982.25;;;9.90;100.00
19783;BME280;10051;40.294;-3.754;2022-12-07T09:28:25;94043.63;;;10.23;100.00
19783;BME280;10051;40.294;-3.754;2022-12-07T09:30:51;94034.00;;;10.38;100.00
19783;BME280;10051;40.294;-3.754;2022-12-07T09:33:16;93936.63;;;9.80;100.00
19783;BME280;10051;40.294;-3.754;2022-12-07T09:35:46;93866.97;;;9.34;100.00
19783;BME280;10051;40.294;-3.754;2022-12-07T09:38:12;94034.88;;;10.58;100.00
19783;BME280;10051;40.294;-3.754;2022-12-07T09:40:38;93998.00;;;10.38;100.00
19783;BME280;10051;40.294;-3.754;2022-12-07T09:43:04;93937.28;;;10.16;100.00
19783;BME280;10051;40.294;-3.754;2022-12-07T09:45:34;94018.84;;;10.78;100.00
19783;BME280;10051;40.294;-3.754;2022-12-07T09:48:01;93901.69;;;10.04;100.00
19783;BME280;10051;40.294;-3.754;2022-12-07T09:50:28;93976.47;;;10.61;100.00
19783;BME280;10051;40.294;-3.754;2022-12-07T09:53:02;94000.00;;;10.90;100.00
19783;BME280;10051;40.294;-3.754;2022-12-07T09:55:33;94011.84;;;10.93;100.00
19783;BME280;10051;40.294;-3.754;2022-12-07T09:58:01;93956.06;;;10.52;100.00
19783;BME280;10051;40.294;-3.754;2022-12-07T10:00:27;93962.34;;;10.56;100.00
19783;BME280;10051;40.294;-3.754;2022-12-07T10:03:00;94019.56;;;10.84;100.00
19783;BME280;10051;40.294;-3.754;2022-12-07T10:05:36;93929.34;;;10.21;100.00
19783;BME280;10051;40.294;-3.754;2022-12-07T10:08:03;94028.03;;;10.81;100.00
19783;BME280;10051;40.294;-3.754;2022-12-07T10:10:34;93960.22;;;10.34;100.00
19783;BME280;10051;40.294;-3.754;2022-12-07T10:13:06;94037.91;;;10.89;100.00
19783;BME280;10051;40.294;-3.754;2022-12-07T10:15:49;94047.88;;;11.11;100.00
19783;BME280;10051;40.294;-3.754;2022-12-07T10:18:33;94029.13;;;10.99;100.00
19783;BME280;10051;40.294;-3.754;2022-12-07T10:21:14;94047.44;;;11.04;100.00
19783;BME280;10051;40.294;-3.754;2022-12-07T10:23:58;94010.31;;;10.86;100.00
19783;BME280;10051;40.294;-3.754;2022-12-07T10:26:49;94043.78;;;11.24;100.00
19783;BME280;10051;40.294;-3.754;2022-12-07T10:29:17;94047.03;;;11.16;100.00
19783;BME280;10051;40.294;-3.754;2022-12-07T10:31:46;94038.78;;;11.23;100.00
19783;BME280;10051;40.294;-3.754;2022-12-07T10:34:28;93984.44;;;10.75;100.00
19783;BME280;10051;40.294;-3.754;2022-12-07T10:37:14;94037.06;;;11.13;100.00
19783;BME280;10051;40.294;-3.754;2022-12-07T10:39:52;94029.69;;;11.15;100.00
19783;BME280;10051;40.294;-3.754;2022-12-07T10:42:30;94039.34;;;11.20;100.00
19783;BME280;10051;40.294;-3.754;2022-12-07T10:50:54;94030.09;;;11.41;100.00
19783;BME280;10051;40.294;-3.754;2022-12-07T10:53:52;94041.91;;;11.44;100.00
19783;BME280;10051;40.294;-3.754;2022-12-07T10:57:00;94025.25;;;11.29;100.00
19783;BME280;10051;40.294;-3.754;2022-12-07T11:07:42;94013.34;;;11.51;100.00
19783;BME280;10051;40.294;-3.754;2022-12-07T11:10:38;94003.16;;;11.64;100.00
19783;BME280;10051;40.294;-3.754;2022-12-07T11:13:14;93995.28;;;11.78;100.00
19783;BME280;10051;40.294;-3.754;2022-12-07T11:18:39;93987.00;;;11.84;100.00
19783;BME280;10051;40.294;-3.754;2022-12-07T11:26:29;93968.38;;;11.81;100.00
19783;BME280;10051;40.294;-3.754;2022-12-07T11:37:49;93908.69;;;12.04;100.00
19783;BME280;10051;40.294;-3.754;2022-12-07T11:45:41;93959.13;;;12.53;100.00
19783;BME280;10051;40.294;-3.754;2022-12-07T11:48:18;93951.13;;;12.44;100.00
19783;BME280;10051;40.294;-3.754;2022-12-07T11:50:50;93951.91;;;12.45;100.00
19783;BME280;10051;40.294;-3.754;2022-12-07T11:53:23;93945.88;;;12.44;100.00
19783;BME280;10051;40.294;-3.754;2022-12-07T11:55:54;93939.91;;;12.39;100.00
19783;BME280;10051;40.294;-3.754;2022-12-07T12:01:42;93930.31;;;12.43;100.00
19783;BME280;10051;40.294;-3.754;2022-12-07T12:06:41;93922.16;;;12.16;100.00
19783;BME280;10051;40.294;-3.754;2022-12-07T12:09:14;93898.00;;;11.95;100.00
19783;BME280;10051;40.294;-3.754;2022-12-07T12:11:56;93924.09;;;12.11;100.00
19783;BME280;10051;40.294;-3.754;2022-12-07T12:22:45;93915.63;;;12.00;100.00
19783;BME280;10051;40.294;-3.754;2022-12-07T12:28:32;93813.16;;;11.42;100.00
19783;BME280;10051;40.294;-3.754;2022-12-07T12:33:35;93822.50;;;11.49;100.00
19783;BME280;10051;40.294;-3.754;2022-12-07T12:36:26;93891.38;;;11.98;100.00
19783;BME280;10051;40.294;-3.754;2022-12-07T12:46:58;93859.47;;;11.85;100.00
19783;BME280;10051;40.294;-3.754;2022-12-07T12:51:55;93807.31;;;11.59;100.00
19783;BME280;10051;40.294;-3.754;2022-12-07T12:54:30;93784.78;;;11.53;100.00
19783;BME280;10051;40.294;-3.754;2022-12-07T12:59:38;93856.47;;;12.20;100.00
19783;BME280;10051;40.294;-3.754;2022-12-07T13:04:55;93866.69;;;12.22;100.00
19783;BME280;10051;40.294;-3.754;2022-12-07T13:10:42;93834.50;;;12.11;100.00
19783;BME280;10051;40.294;-3.754;2022-12-07T13:15:51;93825.03;;;11.96;100.00
19783;BME280;10051;40.294;-3.754;2022-12-07T13:23:34;93786.41;;;11.91;100.00
19783;BME280;10051;40.294;-3.754;2022-12-07T13:28:46;93830.44;;;12.41;100.00
19783;BME280;10051;40.294;-3.754;2022-12-07T13:33:56;93739.38;;;11.84;100.00
19783;BME280;10051;40.294;-3.754;2022-12-07T13:36:27;93720.38;;;11.73;100.00
19783;BME280;10051;40.294;-3.754;2022-12-07T13:39:18;93813.00;;;12.54;100.00
19783;BME280;10051;40.294;-3.754;2022-12-07T13:42:15;93808.44;;;12.46;100.00
19783;BME280;10051;40.294;-3.754;2022-12-07T13:44:44;93750.88;;;12.02;100.00
19783;BME280;10051;40.294;-3.754;2022-12-07T13:47:22;93782.59;;;12.11;100.00
19783;BME280;10051;40.294;-3.754;2022-12-07T13:49:53;93810.31;;;12.45;100.00
19783;BME280;10051;40.294;-3.754;2022-12-07T13:52:30;93785.50;;;12.46;100.00
19783;BME280;10051;40.294;-3.754;2022-12-07T13:57:30;93782.09;;;12.69;100.00
19783;BME280;10051;40.294;-3.754;2022-12-07T13:59:58;93728.84;;;12.44;100.00
19783;BME280;10051;40.294;-3.754;2022-12-07T14:02:30;93758.63;;;12.67;100.00
19783;BME280;10051;40.294;-3.754;2022-12-07T14:05:22;93788.31;;;13.04;100.00
19783;BME280;10051;40.294;-3.754;2022-12-07T14:10:40;93772.09;;;13.20;98.38
19783;BME280;10051;40.294;-3.754;2022-12-07T14:16:01;93758.13;;;13.19;96.84
19783;BME280;10051;40.294;-3.754;2022-12-07T14:18:49;93708.25;;;12.77;97.24
19783;BME280;10051;40.294;-3.754;2022-12-07T14:21:17;93673.63;;;12.70;97.10
19783;BME280;10051;40.294;-3.754;2022-12-07T14:23:45;93673.69;;;12.79;96.96
19783;BME280;10051;40.294;-3.754;2022-12-07T14:26:12;93695.22;;;12.81;95.27
19783;BME280;10051;40.294;-3.754;2022-12-07T14:28:40;93756.53;;;13.09;96.09
19783;BME280;10051;40.294;-3.754;2022-12-07T14:31:23;93765.34;;;12.96;97.01
19783;BME280;10051;40.294;-3.754;2022-12-07T14:33:52;93718.25;;;12.58;98.50
19783;BME280;10051;40.294;-3.754;2022-12-07T14:36:18;93756.34;;;12.74;99.66
19783;BME280;10051;40.294;-3.754;2022-12-07T14:38:43;93754.91;;;12.68;100.00
19783;BME280;10051;40.294;-3.754;2022-12-07T14:41:14;93577.19;;;11.47;100.00
19783;BME280;10051;40.294;-3.754;2022-12-07T14:43:59;93690.53;;;12.15;100.00
19783;BME280;10051;40.294;-3.754;2022-12-07T14:46:25;93697.53;;;12.19;100.00
19783;BME280;10051;40.294;-3.754;2022-12-07T14:48:51;93614.88;;;11.70;100.00
19783;BME280;10051;40.294;-3.754;2022-12-07T14:51:16;93584.56;;;11.58;100.00
19783;BME280;10051;40.294;-3.754;2022-12-07T14:53:48;93727.84;;;12.54;100.00
19783;BME280;10051;40.294;-3.754;2022-12-07T14:56:16;93751.56;;;12.76;100.00
19783;BME280;10051;40.294;-3.754;2022-12-07T14:58:41;93726.19;;;12.58;100.00
19783;BME280;10051;40.294;-3.754;2022-12-07T15:01:07;93674.81;;;12.10;100.00
19783;BME280;10051;40.294;-3.754;2022-12-07T15:03:33;93678.31;;;12.19;100.00
19783;BME280;10051;40.294;-3.754;2022-12-07T15:06:00;93736.56;;;12.63;100.00